KLIC

Details ICAO KLIC
Name LIMON MUNI
Region United States
Timezone America/Denver (UTC-7.0)
Plans Departing 0
Arriving 4
Stats Elevation 5,374 ft / 1,638 m (AMSL)
Location 39.274788° -103.665874°
Runways 1
Magnetic Variation 7.475° E
Sunrise 2017-12-14 14:08:07 UTC / 2017-12-14 07:08:07 Local
Sunset 2017-12-14 23:33:38 UTC / 2017-12-14 16:33:38 Local
Advertisement - Login to hide

Runways

ID Width Length Bearing (true) Bearing (mag) Surface Threshold Offset Overrun Length
16 60 ft / 18 m 4,706 ft / 1,435 m 169.64° 162.17° Concrete 0 ft / 0 m 0 ft / 0 m
34 60 ft / 18 m 4,706 ft / 1,435 m 349.64° 342.17° Concrete 0 ft / 0 m 0 ft / 0 m

Map

Weather


0- 5 10 15 20 25 30 35+ Temperature / ° C

Clouds and Precipitation
Forecast for 2017-12-15 06:00 UTC. Updated 2 hours ago

Ground ~20,000 ft ~40,000 ft Winds

METAR

KLIC 150355Z AUTO 31010KT 10SM CLR M08/M09 A3023 RMK AO2 SLP276 T10831094

TAF

Not found

Frequencies

Recorded 121.12 MHz ASOS
Unicom 122.90 MHz CTAF
Warning: Do not use this data for real-world aviation or navigation. No guarantee of current accuracy is given.